Time;durP1;ratioP1;P1;durP2;ratioP2;P2;SDS_P1;SDS_P2;PMS_P1;PMS_P2;Temp;Humidity;BMP_temperature;BMP_pressure;BME280_temperature;BME280_humidity;BME280_pressure;Samples;Min_cycle;Max_cycle;Signal;HPM_P1;HPM_P2
2021/09/26 00:01:32;;;;;;;6.80;5.25;;;;;;;17.32;nan;100475.34;5069100;28;20064;-75
2021/09/26 00:03:58;;;;;;;7.93;6.18;;;;;;;17.39;nan;100481.53;5069589;28;20024;-76
2021/09/26 00:06:23;;;;;;;6.45;5.40;;;;;;;17.39;nan;100471.66;5050578;28;20495;-75
2021/09/26 00:08:49;;;;;;;6.43;4.68;;;;;;;17.42;nan;100470.44;5068681;28;20063;-75
2021/09/26 00:11:14;;;;;;;4.80;4.30;;;;;;;17.48;nan;100475.00;5068563;28;20039;-75
2021/09/26 00:13:41;;;;;;;5.47;4.55;;;;;;;17.47;nan;100469.84;5068837;28;20036;-75
2021/09/26 00:16:08;;;;;;;5.43;4.63;;;;;;;17.43;nan;100484.66;5050981;28;20033;-75
2021/09/26 00:18:35;;;;;;;6.30;4.97;;;;;;;17.38;nan;100474.56;5068443;28;20041;-76
2021/09/26 00:21:01;;;;;;;4.80;4.30;;;;;;;17.37;nan;100467.53;5069247;28;20055;-76
2021/09/26 00:23:28;;;;;;;5.63;4.32;;;;;;;17.39;nan;100471.66;5050534;28;20040;-75
2021/09/26 00:25:54;;;;;;;6.18;4.60;;;;;;;17.41;nan;100468.81;5068505;28;20048;-75
2021/09/26 00:28:21;;;;;;;4.60;3.42;;;;;;;17.43;nan;100473.97;5043896;28;20029;-75
2021/09/26 00:30:49;;;;;;;5.40;4.20;;;;;;;17.37;nan;100481.72;5069281;28;20133;-75
2021/09/26 00:33:17;;;;;;;5.18;4.18;;;;;;;17.36;nan;100484.63;5068804;28;20024;-75
2021/09/26 00:35:43;;;;;;;5.15;4.10;;;;;;;17.34;nan;100490.16;5068390;28;20041;-75
2021/09/26 00:38:10;;;;;;;4.53;3.60;;;;;;;17.35;nan;100489.16;5049595;28;20033;-76
2021/09/26 00:40:37;;;;;;;4.53;3.95;;;;;;;17.41;nan;100498.22;5050958;28;20215;-75
2021/09/26 00:43:05;;;;;;;4.97;4.10;;;;;;;17.43;nan;100506.88;5070431;28;20511;-76
2021/09/26 00:45:32;;;;;;;5.35;4.20;;;;;;;17.38;nan;100499.44;5051587;28;20047;-76
2021/09/26 00:47:58;;;;;;;6.00;5.07;;;;;;;17.30;nan;100501.44;5073310;28;20119;-76
2021/09/26 00:50:26;;;;;;;8.40;5.53;;;;;;;17.35;nan;100494.50;5057990;28;20047;-76
2021/09/26 00:52:52;;;;;;;8.38;6.10;;;;;;;17.19;nan;100490.28;5050714;28;20119;-76
2021/09/26 00:55:19;;;;;;;9.27;6.07;;;;;;;17.19;nan;100479.59;5050457;28;20036;-76
2021/09/26 00:57:45;;;;;;;7.55;5.80;;;;;;;17.17;nan;100478.97;5050999;28;20111;-76
2021/09/26 01:00:14;;;;;;;6.20;4.93;;;;;;;17.14;nan;100474.00;5067876;28;20043;-76
2021/09/26 01:02:40;;;;;;;8.73;6.90;;;;;;;17.16;nan;100461.28;5068634;28;20036;-76
2021/09/26 01:05:13;;;;;;;8.00;6.55;;;;;;;17.06;nan;100459.97;5067832;28;20040;-76
2021/09/26 01:08:12;;;;;;;8.18;6.35;;;;;;;17.08;nan;100465.94;5068532;28;20056;-76
2021/09/26 01:10:47;;;;;;;9.10;6.32;;;;;;;17.02;nan;100446.19;5069670;28;20102;-75
2021/09/26 01:13:20;;;;;;;7.22;5.60;;;;;;;17.01;nan;100449.06;5049375;28;20552;-75
2021/09/26 01:16:13;;;;;;;5.63;4.25;;;;;;;16.96;nan;100453.13;5050403;28;20140;-75
2021/09/26 01:19:12;;;;;;;5.38;4.13;;;;;;;16.90;nan;100461.09;5047512;28;20429;-76
2021/09/26 01:21:48;;;;;;;4.85;3.97;;;;;;;16.89;nan;100456.78;5071971;28;20178;-75
2021/09/26 01:24:19;;;;;;;5.00;3.92;;;;;;;16.91;nan;100460.91;5068680;28;20733;-76
2021/09/26 01:26:55;;;;;;;7.28;4.18;;;;;;;16.96;nan;100460.31;5066770;28;20051;-75
2021/09/26 01:29:44;;;;;;;6.30;4.18;;;;;;;16.98;nan;100460.94;5055913;28;20451;-75
2021/09/26 01:32:14;;;;;;;;;;;;;;;16.93;nan;100466.06;5080357;28;20025;-76
2021/09/26 01:34:40;;;;;;;;;;;;;;;16.85;nan;100472.38;5075058;28;19916;-76
2021/09/26 01:37:37;;;;;;;5.10;3.50;;;;;;;16.79;nan;100472.31;5072217;28;19947;-75
2021/09/26 01:40:24;;;;;;;5.07;3.40;;;;;;;16.72;nan;100477.56;5053364;28;20115;-75
2021/09/26 01:43:00;;;;;;;3.60;3.00;;;;;;;16.71;nan;100483.94;5053869;28;20396;-75
2021/09/26 01:45:30;;;;;;;3.70;3.25;;;;;;;16.68;nan;100478.97;5071753;28;20056;-75
2021/09/26 01:48:14;;;;;;;4.97;3.45;;;;;;;16.64;nan;100486.56;5075506;28;20115;-76
2021/09/26 01:50:42;;;;;;;3.00;2.60;;;;;;;16.64;nan;100491.91;5049692;28;20040;-76
2021/09/26 01:53:11;;;;;;;4.88;3.13;;;;;;;16.64;nan;100497.22;5072264;28;20036;-76
2021/09/26 01:55:39;;;;;;;8.05;5.05;;;;;;;16.70;nan;100493.78;5053844;28;20124;-76
2021/09/26 01:58:06;;;;;;;8.85;5.05;;;;;;;16.72;nan;100488.25;5053204;28;20123;-76
2021/09/26 02:00:33;;;;;;;8.07;5.30;;;;;;;16.75;nan;100486.00;5071209;28;20127;-76
2021/09/26 02:02:59;;;;;;;7.90;5.25;;;;;;;16.67;nan;100467.47;5070922;28;20129;-76
2021/09/26 02:05:27;;;;;;;5.97;4.22;;;;;;;16.68;nan;100476.31;5053597;28;20029;-76
2021/09/26 02:07:54;;;;;;;10.10;5.20;;;;;;;16.73;nan;100477.41;5071292;28;20044;-75
2021/09/26 02:10:25;;;;;;;6.80;4.70;;;;;;;16.72;nan;100467.72;5070818;28;20040;-76
2021/09/26 02:12:52;;;;;;;5.57;4.30;;;;;;;16.71;nan;100465.25;5053238;28;20143;-76
2021/09/26 02:15:21;;;;;;;5.93;4.00;;;;;;;16.68;nan;100466.44;5053161;28;20036;-76
2021/09/26 02:17:47;;;;;;;5.80;4.10;;;;;;;16.64;nan;100475.88;5053333;28;20032;-76
2021/09/26 02:20:18;;;;;;;5.55;3.90;;;;;;;16.56;nan;100470.66;5069278;28;20505;-76
2021/09/26 02:22:47;;;;;;;6.03;4.28;;;;;;;16.50;nan;100479.44;5070288;28;20119;-76
2021/09/26 02:25:14;;;;;;;5.90;3.72;;;;;;;16.49;nan;100478.63;5062405;28;20393;-76
2021/09/26 02:27:41;;;;;;;8.63;4.60;;;;;;;16.50;nan;100471.44;5051772;28;20056;-76
2021/09/26 02:30:09;;;;;;;6.88;4.38;;;;;;;16.47;nan;100475.31;5051899;28;20061;-76
2021/09/26 02:32:34;;;;;;;5.10;3.85;;;;;;;16.45;nan;100472.00;5072423;28;20298;-76
2021/09/26 02:34:59;;;;;;;5.07;3.92;;;;;;;16.42;nan;100480.41;5073354;28;20588;-76
2021/09/26 02:37:25;;;;;;;4.93;3.92;;;;;;;16.36;nan;100478.50;5070909;28;20204;-76
2021/09/26 02:39:51;;;;;;;5.72;4.43;;;;;;;16.29;nan;100481.09;5070828;28;20094;-76
2021/09/26 02:42:41;;;;;;;6.50;4.72;;;;;;;16.23;nan;100473.88;5052107;28;20064;-76
2021/09/26 02:45:21;;;;;;;4.93;4.18;;;;;;;16.16;nan;100480.97;5069949;28;20445;-76
2021/09/26 02:47:54;;;;;;;5.82;4.40;;;;;;;16.09;nan;100483.56;5071139;28;20302;-75
2021/09/26 02:50:20;;;;;;;6.18;4.28;;;;;;;16.05;nan;100476.94;5047325;28;20280;-76
2021/09/26 02:52:45;;;;;;;4.20;3.60;;;;;;;16.05;nan;100470.78;5053428;28;20374;-75
2021/09/26 02:55:14;;;;;;;5.97;4.20;;;;;;;16.02;nan;100476.53;5070345;28;20115;-76
2021/09/26 02:57:40;;;;;;;5.65;4.60;;;;;;;16.02;nan;100480.00;5067661;28;20123;-76
2021/09/26 03:00:06;;;;;;;10.60;5.70;;;;;;;16.04;nan;100479.78;5070478;28;20060;-76
2021/09/26 03:02:36;;;;;;;5.65;4.68;;;;;;;16.02;nan;100481.84;5053847;28;20051;-76
2021/09/26 03:05:03;;;;;;;6.95;5.28;;;;;;;16.03;nan;100476.31;5065003;28;20136;-76
2021/09/26 03:07:28;;;;;;;6.07;4.20;;;;;;;16.04;nan;100480.66;5054881;28;20406;-75
2021/09/26 03:09:54;;;;;;;4.70;3.80;;;;;;;16.00;nan;100476.69;5054271;28;20135;-76
2021/09/26 03:12:22;;;;;;;5.38;4.07;;;;;;;15.99;nan;100480.34;5071792;28;20098;-76
2021/09/26 03:14:49;;;;;;;8.05;5.00;;;;;;;15.91;nan;100485.81;5052563;28;20040;-76
2021/09/26 03:17:15;;;;;;;6.07;4.50;;;;;;;15.90;nan;100478.84;5072183;28;20520;-76
2021/09/26 03:19:41;;;;;;;6.93;4.70;;;;;;;15.84;nan;100491.06;5072421;28;20049;-76
2021/09/26 03:22:07;;;;;;;5.75;4.45;;;;;;;15.81;nan;100483.44;5070545;28;20457;-76
2021/09/26 03:24:33;;;;;;;6.65;4.70;;;;;;;15.79;nan;100479.31;5070172;28;20317;-76
2021/09/26 03:27:02;;;;;;;6.75;3.80;;;;;;;15.81;nan;100475.47;5051645;28;20036;-75
2021/09/26 03:29:28;;;;;;;6.40;4.40;;;;;;;15.77;nan;100476.84;5052225;28;20523;-75
2021/09/26 03:31:53;;;;;;;5.93;4.50;;;;;;;15.77;nan;100471.50;5070534;28;20032;-76
2021/09/26 03:34:18;;;;;;;5.97;4.30;;;;;;;15.71;nan;100473.09;5052265;28;20523;-76
2021/09/26 03:36:44;;;;;;;7.50;5.15;;;;;;;15.67;nan;100485.09;5051719;28;20494;-75
2021/09/26 03:39:09;;;;;;;7.55;5.47;;;;;;;15.66;nan;100483.44;5069545;28;20028;-78
2021/09/26 03:41:35;;;;;;;7.22;5.82;;;;;;;15.67;nan;100485.09;5070032;28;20051;-77
2021/09/26 03:44:00;;;;;;;8.23;6.07;;;;;;;15.61;nan;100472.53;5069286;28;20060;-75
2021/09/26 03:46:25;;;;;;;7.80;5.22;;;;;;;15.66;nan;100471.94;5069089;28;20286;-75
2021/09/26 03:48:51;;;;;;;6.88;4.20;;;;;;;15.63;nan;100469.66;5053247;28;20116;-75
2021/09/26 03:51:16;;;;;;;7.40;5.85;;;;;;;15.70;nan;100467.94;5052094;28;20033;-75
2021/09/26 03:53:42;;;;;;;6.50;5.13;;;;;;;15.68;nan;100469.91;5051772;28;20065;-76
2021/09/26 03:56:07;;;;;;;6.70;5.13;;;;;;;15.70;nan;100471.41;5067735;28;20036;-75
2021/09/26 03:58:33;;;;;;;6.97;5.00;;;;;;;15.69;nan;100463.59;5068812;28;20513;-76
2021/09/26 04:00:58;;;;;;;6.97;5.40;;;;;;;15.61;nan;100461.00;5069473;28;20067;-76
2021/09/26 04:03:23;;;;;;;7.40;5.85;;;;;;;15.56;nan;100466.09;5051396;28;20032;-76
2021/09/26 04:05:49;;;;;;;6.07;5.00;;;;;;;15.53;nan;100472.63;5067827;28;20028;-76
2021/09/26 04:08:15;;;;;;;6.90;4.97;;;;;;;15.48;nan;100475.00;5050348;28;20039;-76
2021/09/26 04:10:40;;;;;;;7.45;4.70;;;;;;;15.46;nan;100469.84;5069155;28;20365;-75
2021/09/26 04:13:06;;;;;;;5.18;4.40;;;;;;;15.45;nan;100475.38;5068328;28;20036;-76
2021/09/26 04:15:31;;;;;;;6.55;4.70;;;;;;;15.43;nan;100474.75;5068833;28;20125;-76
2021/09/26 04:17:56;;;;;;;7.10;5.15;;;;;;;15.38;nan;100467.31;5050872;28;20539;-76
2021/09/26 04:20:22;;;;;;;6.47;4.50;;;;;;;15.35;nan;100467.69;5068145;28;20048;-76
2021/09/26 04:22:47;;;;;;;5.88;4.68;;;;;;;15.31;nan;100466.38;5051113;28;20048;-76
2021/09/26 04:25:12;;;;;;;5.15;4.10;;;;;;;15.28;nan;100467.59;5069270;28;20032;-76
2021/09/26 04:27:38;;;;;;;4.50;3.72;;;;;;;15.31;nan;100461.06;5068531;28;20047;-75
2021/09/26 04:30:05;;;;;;;5.55;3.92;;;;;;;15.29;nan;100463.91;5068952;28;20447;-75
2021/09/26 04:32:31;;;;;;;5.82;4.53;;;;;;;15.34;nan;100468.66;5051108;28;20040;-75
2021/09/26 04:34:56;;;;;;;6.18;4.25;;;;;;;15.38;nan;100458.50;5068570;28;20048;-75
2021/09/26 04:37:21;;;;;;;5.03;4.18;;;;;;;15.40;nan;100456.47;5050331;28;20420;-75
2021/09/26 04:39:47;;;;;;;6.50;5.13;;;;;;;15.35;nan;100458.84;5068492;28;20072;-75
2021/09/26 04:42:12;;;;;;;6.78;5.13;;;;;;;15.32;nan;100465.34;5068404;28;20066;-75
2021/09/26 04:44:38;;;;;;;8.00;5.53;;;;;;;15.26;nan;100460.78;5071214;28;20417;-75
2021/09/26 04:47:03;;;;;;;6.57;4.68;;;;;;;15.24;nan;100460.13;5073502;28;20036;-75
2021/09/26 04:49:29;;;;;;;6.10;4.75;;;;;;;15.20;nan;100454.34;5080930;28;20043;-75
2021/09/26 04:51:59;;;;;;;4.88;3.95;;;;;;;15.20;nan;100459.66;5072897;28;20078;-75
2021/09/26 04:54:25;;;;;;;5.55;3.95;;;;;;;15.19;nan;100451.88;5072364;28;20118;-75
2021/09/26 04:56:51;;;;;;;7.63;5.28;;;;;;;15.13;nan;100453.41;5073141;28;20063;-75
2021/09/26 04:59:17;;;;;;;6.22;4.72;;;;;;;15.15;nan;100450.59;5072930;28;20025;-76
2021/09/26 05:01:42;;;;;;;6.25;4.72;;;;;;;15.18;nan;100447.53;5073231;28;20032;-76
2021/09/26 05:04:08;;;;;;;6.32;5.05;;;;;;;15.22;nan;100454.97;5072363;28;20033;-76
2021/09/26 05:06:33;;;;;;;4.80;4.15;;;;;;;15.22;nan;100454.16;5065533;28;20131;-75
2021/09/26 05:08:58;;;;;;;4.72;3.80;;;;;;;15.19;nan;100471.34;5072228;28;20090;-76
2021/09/26 05:11:24;;;;;;;4.90;4.40;;;;;;;15.15;nan;100469.22;5072570;28;20311;-76
2021/09/26 05:13:49;;;;;;;6.13;4.60;;;;;;;15.12;nan;100470.41;5072387;28;20493;-77
2021/09/26 05:16:14;;;;;;;5.65;4.03;;;;;;;15.09;nan;100470.78;5053857;28;20504;-76
2021/09/26 05:18:40;;;;;;;5.00;4.40;;;;;;;15.06;nan;100472.00;5072743;28;20063;-76
2021/09/26 05:21:05;;;;;;;6.47;5.10;;;;;;;14.98;nan;100468.56;5054372;28;20032;-75
2021/09/26 05:23:30;;;;;;;5.63;4.65;;;;;;;14.98;nan;100469.38;5054129;28;20044;-75
2021/09/26 05:25:56;;;;;;;6.05;4.43;;;;;;;14.97;nan;100464.25;5071497;28;20029;-75
2021/09/26 05:28:21;;;;;;;5.30;4.47;;;;;;;14.94;nan;100467.28;5071097;28;20190;-75
2021/09/26 05:30:47;;;;;;;6.25;5.05;;;;;;;14.92;nan;100466.63;5072157;28;20036;-75
2021/09/26 05:33:13;;;;;;;6.00;5.00;;;;;;;14.89;nan;100475.81;5074233;28;20085;-75
2021/09/26 05:35:39;;;;;;;6.22;5.00;;;;;;;14.86;nan;100481.50;5072576;28;20036;-75
2021/09/26 05:38:05;;;;;;;5.55;4.30;;;;;;;14.85;nan;100479.84;5071906;28;20029;-75
2021/09/26 05:40:30;;;;;;;5.80;4.68;;;;;;;14.84;nan;100483.50;5053885;28;20047;-76
2021/09/26 05:42:56;;;;;;;5.15;4.47;;;;;;;14.83;nan;100482.69;5071940;28;20508;-75
2021/09/26 05:45:21;;;;;;;6.93;5.30;;;;;;;14.92;nan;100480.78;5071814;28;20051;-76
2021/09/26 05:47:46;;;;;;;4.47;3.65;;;;;;;15.01;nan;100477.00;5075254;28;20042;-76
2021/09/26 05:50:12;;;;;;;4.90;3.85;;;;;;;15.09;nan;100481.44;5076465;28;20040;-76
2021/09/26 05:52:37;;;;;;;4.75;3.88;;;;;;;15.20;nan;100494.28;5071895;28;20039;-76
2021/09/26 05:55:03;;;;;;;5.85;4.10;;;;;;;15.33;nan;100493.69;5072074;28;20047;-76
2021/09/26 05:57:28;;;;;;;6.32;4.10;;;;;;;15.62;nan;100497.34;5072424;28;20032;-76
2021/09/26 05:59:54;;;;;;;6.78;4.80;;;;;;;15.91;nan;100496.50;5072246;28;20116;-76
2021/09/26 06:02:27;;;;;;;6.60;4.43;;;;;;;16.11;nan;100496.69;5070502;28;20037;-76
2021/09/26 06:04:52;;;;;;;6.22;4.30;;;;;;;16.38;nan;100497.81;5071011;28;20558;-76
2021/09/26 06:07:18;;;;;;;6.65;4.40;;;;;;;16.59;nan;100504.16;5061394;28;20412;-76
2021/09/26 06:09:44;;;;;;;5.70;4.18;;;;;;;16.85;nan;100508.91;5071025;28;20037;-76
2021/09/26 06:12:12;;;;;;;6.72;4.88;;;;;;;17.03;nan;100500.44;5052865;28;20062;-75
2021/09/26 06:14:38;;;;;;;5.93;5.10;;;;;;;17.11;nan;100497.59;5070303;28;20168;-76
2021/09/26 06:17:04;;;;;;;6.05;4.35;;;;;;;17.24;nan;100508.41;5053117;28;20039;-75
2021/09/26 06:19:30;;;;;;;4.78;3.40;;;;;;;17.61;nan;100499.16;5053286;28;20037;-75
2021/09/26 06:21:55;;;;;;;5.90;4.32;;;;;;;17.86;nan;100493.31;5071723;28;20040;-76
2021/09/26 06:24:20;;;;;;;6.13;4.47;;;;;;;18.08;nan;100485.16;5062600;28;20082;-76
2021/09/26 06:26:46;;;;;;;5.05;3.50;;;;;;;18.34;nan;100490.53;5070919;28;20033;-77
2021/09/26 06:29:12;;;;;;;5.22;3.53;;;;;;;18.79;nan;100493.50;5071580;28;20070;-75
2021/09/26 06:31:39;;;;;;;4.65;3.15;;;;;;;19.10;nan;100486.66;5071451;28;20111;-75
2021/09/26 06:34:04;;;;;;;4.20;3.10;;;;;;;19.28;nan;100494.88;5070920;28;20041;-75
2021/09/26 06:36:30;;;;;;;4.47;3.15;;;;;;;19.45;nan;100505.97;5070977;28;20496;-75
2021/09/26 06:38:55;;;;;;;3.97;3.17;;;;;;;19.59;nan;100508.59;5053587;28;20106;-75
2021/09/26 06:41:22;;;;;;;3.50;2.83;;;;;;;19.81;nan;100504.63;5070301;28;20044;-75
2021/09/26 06:43:47;;;;;;;3.92;3.05;;;;;;;19.99;nan;100501.25;5070872;28;20044;-75
2021/09/26 06:46:13;;;;;;;4.32;3.20;;;;;;;20.19;nan;100517.25;5070751;28;20043;-75
2021/09/26 06:48:38;;;;;;;4.70;3.20;;;;;;;20.56;nan;100528.19;5079387;28;20052;-75
2021/09/26 06:51:03;;;;;;;4.13;3.15;;;;;;;20.90;nan;100526.06;5070459;28;20029;-75
2021/09/26 06:53:29;;;;;;;3.63;2.67;;;;;;;20.99;nan;100533.63;5052233;28;20037;-75
2021/09/26 06:55:54;;;;;;;3.75;3.10;;;;;;;20.85;nan;100520.53;5070090;28;20071;-75
2021/09/26 06:58:20;;;;;;;4.45;3.58;;;;;;;20.61;nan;100503.38;5070179;28;20524;-75
2021/09/26 07:00:45;;;;;;;4.70;3.30;;;;;;;20.28;nan;100510.56;5069920;28;20029;-75
2021/09/26 07:03:10;;;;;;;5.90;4.13;;;;;;;20.17;nan;100523.88;5065557;28;20068;-75
2021/09/26 07:05:36;;;;;;;4.53;3.55;;;;;;;20.05;nan;100531.78;5069968;28;20370;-75
2021/09/26 07:08:01;;;;;;;3.83;3.33;;;;;;;19.93;nan;100520.91;5070116;28;20136;-76
2021/09/26 07:10:26;;;;;;;3.63;3.20;;;;;;;19.80;nan;100529.00;5053049;28;20404;-75
2021/09/26 07:12:52;;;;;;;6.43;4.50;;;;;;;19.71;nan;100517.66;5070251;28;20036;-75
2021/09/26 07:15:17;;;;;;;4.43;3.70;;;;;;;19.65;nan;100530.03;5071640;28;20036;-75
2021/09/26 07:17:42;;;;;;;5.57;4.18;;;;;;;19.69;nan;100534.00;5053110;28;20043;-76
2021/09/26 07:20:08;;;;;;;5.60;4.45;;;;;;;19.89;nan;100538.44;5069649;28;20048;-76
2021/09/26 07:22:34;;;;;;;5.28;3.85;;;;;;;20.09;nan;100539.19;5074210;28;20141;-76
2021/09/26 07:24:59;;;;;;;3.97;3.20;;;;;;;20.43;nan;100539.84;5052082;28;20608;-76
2021/09/26 07:27:25;;;;;;;4.82;2.78;;;;;;;20.77;nan;100543.94;5070570;28;20449;-76
2021/09/26 07:29:51;;;;;;;3.95;2.75;;;;;;;21.24;nan;100557.00;5069920;28;20128;-76
2021/09/26 07:32:16;;;;;;;5.80;4.20;;;;;;;21.91;nan;100548.25;5050989;28;20032;-76
2021/09/26 07:34:43;;;;;;;7.00;4.15;;;;;;;22.25;nan;100554.88;5053406;28;20044;-76
2021/09/26 07:37:09;;;;;;;6.30;3.85;;;;;;;22.57;nan;100550.06;5069742;28;20044;-76
2021/09/26 07:39:36;;;;;;;5.60;4.35;;;;;;;22.94;nan;100547.19;5070349;28;20033;-76
2021/09/26 07:42:01;;;;;;;5.00;4.05;;;;;;;23.30;nan;100553.44;5071468;28;20029;-76
2021/09/26 07:44:27;;;;;;;;;;;;;;;23.25;nan;100545.25;5069998;28;20062;-76
2021/09/26 07:46:52;;;;;;;6.87;4.20;;;;;;;23.66;nan;100552.34;5069480;28;20668;-76
2021/09/26 07:49:17;;;;;;;4.10;3.30;;;;;;;23.95;nan;100550.56;5075265;28;20055;-76
2021/09/26 07:51:43;;;;;;;3.20;2.63;;;;;;;24.49;nan;100558.31;5043282;28;20401;-76
2021/09/26 07:54:08;;;;;;;4.50;3.40;;;;;;;24.89;nan;100559.28;5064116;28;21009;-76
2021/09/26 07:56:34;;;;;;;4.50;3.05;;;;;;;24.65;nan;100566.72;5062785;28;20041;-76
2021/09/26 07:58:59;;;;;;;7.20;4.47;;;;;;;24.51;nan;100568.91;5071243;28;20056;-76
2021/09/26 08:01:24;;;;;;;5.72;3.90;;;;;;;24.21;nan;100569.94;5069366;28;20132;-76
2021/09/26 08:03:50;;;;;;;6.40;4.40;;;;;;;24.55;nan;100575.44;5051296;28;20036;-76
2021/09/26 08:06:18;;;;;;;5.35;3.90;;;;;;;24.33;nan;100578.00;5069014;28;20500;-76
2021/09/26 08:08:43;;;;;;;8.23;5.03;;;;;;;24.04;nan;100585.28;5069994;28;20043;-76
2021/09/26 08:11:08;;;;;;;5.55;4.22;;;;;;;23.40;nan;100586.03;5052096;28;20032;-76
2021/09/26 08:13:34;;;;;;;6.38;5.35;;;;;;;23.15;nan;100585.47;5069564;28;20035;-76
2021/09/26 08:16:00;;;;;;;6.32;5.68;;;;;;;22.85;nan;100592.53;5075975;28;20044;-76
2021/09/26 08:18:25;;;;;;;9.63;6.00;;;;;;;22.55;nan;100595.28;5068385;28;20091;-75
2021/09/26 08:20:51;;;;;;;9.00;5.90;;;;;;;22.21;nan;100604.84;5069356;28;20037;-75
2021/09/26 08:23:16;;;;;;;5.47;4.20;;;;;;;21.88;nan;100602.53;5069108;28;20033;-75
2021/09/26 08:25:42;;;;;;;6.30;4.53;;;;;;;21.84;nan;100604.84;5069179;28;20028;-76
2021/09/26 08:28:07;;;;;;;6.15;4.90;;;;;;;21.75;nan;100606.19;5049978;28;20035;-75
2021/09/26 08:30:32;;;;;;;6.28;5.35;;;;;;;21.53;nan;100605.81;5051476;28;20120;-76
2021/09/26 08:32:58;;;;;;;9.68;5.97;;;;;;;21.39;nan;100611.28;5073938;28;20039;-76
2021/09/26 08:35:23;;;;;;;6.95;5.63;;;;;;;21.30;nan;100604.53;5069449;28;20539;-76
2021/09/26 08:37:50;;;;;;;7.80;6.20;;;;;;;21.26;nan;100602.50;5069577;28;20466;-76
2021/09/26 08:40:16;;;;;;;6.97;5.70;;;;;;;21.12;nan;100607.19;5068710;28;20032;-75
2021/09/26 08:42:42;;;;;;;8.60;6.80;;;;;;;21.22;nan;100602.13;5069097;28;20505;-75
2021/09/26 08:45:12;;;;;;;10.82;7.65;;;;;;;21.29;nan;100610.13;5068461;28;20036;-75
2021/09/26 08:47:39;;;;;;;8.73;6.32;;;;;;;21.29;nan;100619.03;5071383;28;20048;-75
2021/09/26 08:50:09;;;;;;;10.00;7.43;;;;;;;21.40;nan;100622.88;5051144;28;20043;-75
2021/09/26 08:52:35;;;;;;;8.35;6.55;;;;;;;21.39;nan;100619.38;5068102;28;20162;-75
2021/09/26 08:55:00;;;;;;;8.93;6.55;;;;;;;21.51;nan;100629.41;5051116;28;20044;-75
2021/09/26 08:57:26;;;;;;;8.23;6.40;;;;;;;21.59;nan;100635.31;5069307;28;20119;-75
2021/09/26 08:59:52;;;;;;;9.68;6.70;;;;;;;21.60;nan;100641.53;5069689;28;20036;-75
2021/09/26 09:02:18;;;;;;;9.50;6.35;;;;;;;21.61;nan;100644.00;5068968;28;20032;-75
2021/09/26 09:04:43;;;;;;;10.52;6.40;;;;;;;21.62;nan;100637.59;5069469;28;20036;-76
2021/09/26 09:07:11;;;;;;;7.75;6.25;;;;;;;21.65;nan;100632.81;5069563;28;20040;-75
2021/09/26 09:09:50;;;;;;;8.35;5.72;;;;;;;21.69;nan;100631.28;5070790;28;20033;-75
2021/09/26 09:12:16;;;;;;;6.43;5.22;;;;;;;21.82;nan;100623.91;5078438;28;20025;-75
2021/09/26 09:14:57;;;;;;;8.60;6.40;;;;;;;21.77;nan;100622.94;5074584;28;20041;-75
2021/09/26 09:17:28;;;;;;;12.32;7.47;;;;;;;21.65;nan;100619.34;5068767;28;20044;-75
2021/09/26 09:20:23;;;;;;;10.80;7.13;;;;;;;21.67;nan;100620.78;5051007;28;20119;-75
2021/09/26 09:22:53;;;;;;;9.07;6.70;;;;;;;21.59;nan;100611.09;5067287;28;20064;-77
2021/09/26 09:25:28;;;;;;;8.37;6.60;;;;;;;21.76;nan;100608.66;5067510;28;20154;-75
2021/09/26 09:27:55;;;;;;;8.52;6.20;;;;;;;21.70;nan;100604.16;5067173;28;20433;-75
2021/09/26 09:30:32;;;;;;;7.13;5.95;;;;;;;21.67;nan;100604.63;5069264;28;20040;-75
2021/09/26 09:32:57;;;;;;;8.75;5.80;;;;;;;21.67;nan;100601.94;5071510;28;20029;-75
2021/09/26 09:35:23;;;;;;;6.32;5.20;;;;;;;21.87;nan;100611.66;5070373;28;20453;-75
2021/09/26 09:37:48;;;;;;;7.57;6.18;;;;;;;21.76;nan;100615.91;5071552;28;20107;-75
2021/09/26 09:40:16;;;;;;;6.97;6.00;;;;;;;21.80;nan;100626.00;5070346;28;20497;-75
2021/09/26 09:42:42;;;;;;;8.40;6.00;;;;;;;21.87;nan;100631.31;5070143;28;20934;-75
2021/09/26 09:45:57;;;;;;;8.18;5.50;;;;;;;21.85;nan;100631.53;5070185;28;20039;-75
2021/09/26 09:48:24;;;;;;;8.82;6.18;;;;;;;21.90;nan;100635.44;5026862;28;20072;-75
2021/09/26 09:50:56;;;;;;;8.20;5.90;;;;;;;21.94;nan;100636.63;5069778;28;20837;-75
2021/09/26 09:53:39;;;;;;;10.60;5.68;;;;;;;21.59;nan;100639.88;5071188;28;20028;-75
2021/09/26 09:56:19;;;;;;;10.77;5.97;;;;;;;21.65;nan;100638.19;5071623;28;20113;-75
2021/09/26 09:58:50;;;;;;;7.45;5.40;;;;;;;21.80;nan;100646.72;5073264;28;20634;-75
2021/09/26 10:01:23;;;;;;;8.30;5.78;;;;;;;21.74;nan;100661.91;5073716;28;20032;-75
2021/09/26 10:03:51;;;;;;;10.57;5.93;;;;;;;21.84;nan;100659.50;5073242;28;20032;-75
2021/09/26 10:06:41;;;;;;;8.82;5.88;;;;;;;21.75;nan;100660.03;5054764;28;20040;-75
2021/09/26 10:09:18;;;;;;;7.97;5.68;;;;;;;21.55;nan;100646.78;5072349;28;20040;-75
2021/09/26 10:11:52;;;;;;;10.75;5.50;;;;;;;21.42;nan;100653.88;5044024;28;20043;-75
2021/09/26 10:14:19;;;;;;;10.60;5.38;;;;;;;21.39;nan;100648.97;5055281;28;20039;-75
2021/09/26 10:16:46;;;;;;;5.72;4.57;;;;;;;21.30;nan;100650.25;5052475;28;20419;-75
2021/09/26 10:19:12;;;;;;;8.38;5.45;;;;;;;21.19;nan;100650.97;5063185;28;20032;-75
2021/09/26 10:21:39;;;;;;;8.98;5.65;;;;;;;21.23;nan;100649.47;5072462;28;20181;-75
2021/09/26 10:24:05;;;;;;;7.70;5.78;;;;;;;21.02;nan;100647.16;5055086;28;20041;-75
2021/09/26 10:26:31;;;;;;;8.00;5.68;;;;;;;20.95;nan;100645.34;5077684;28;20035;-75
2021/09/26 10:28:58;;;;;;;5.85;4.75;;;;;;;21.00;nan;100647.38;5062357;28;20432;-75
2021/09/26 10:31:27;;;;;;;9.25;5.40;;;;;;;20.96;nan;100643.47;5070640;28;20059;-75
2021/09/26 10:33:56;;;;;;;7.63;5.50;;;;;;;21.08;nan;100647.09;5071113;28;20035;-75
2021/09/26 10:36:22;;;;;;;9.73;5.78;;;;;;;21.12;nan;100652.88;5052402;28;20124;-74
2021/09/26 10:38:50;;;;;;;5.57;4.50;;;;;;;21.23;nan;100649.47;5043723;28;20403;-74
2021/09/26 10:41:16;;;;;;;6.05;5.00;;;;;;;21.33;nan;100647.13;5050732;28;20396;-74
2021/09/26 10:43:42;;;;;;;5.72;4.80;;;;;;;21.18;nan;100639.38;5052279;28;20037;-74
2021/09/26 10:46:19;;;;;;;8.63;5.50;;;;;;;21.28;nan;100643.44;5070043;28;20036;-74
2021/09/26 10:48:57;;;;;;;7.72;5.35;;;;;;;21.24;nan;100652.97;5052855;28;20072;-75
2021/09/26 10:51:58;;;;;;;6.88;4.25;;;;;;;21.26;nan;100653.59;5069867;28;20475;-74
2021/09/26 10:54:28;;;;;;;7.82;5.28;;;;;;;21.27;nan;100656.06;5027764;28;20465;-74
2021/09/26 10:57:10;;;;;;;9.10;5.60;;;;;;;21.20;nan;100652.59;5069038;28;20037;-74
2021/09/26 10:59:37;;;;;;;10.13;5.63;;;;;;;21.17;nan;100650.38;5067727;28;20465;-74
2021/09/26 11:02:21;;;;;;;7.43;5.30;;;;;;;21.23;nan;100649.47;5071881;28;20120;-74
2021/09/26 11:04:47;;;;;;;9.20;5.88;;;;;;;21.28;nan;100638.88;5050095;28;20043;-74
2021/09/26 11:07:29;;;;;;;9.10;5.82;;;;;;;21.33;nan;100638.22;5069160;28;20044;-74
2021/09/26 11:09:59;;;;;;;7.45;5.70;;;;;;;21.36;nan;100630.56;5068361;28;20032;-74
2021/09/26 11:12:50;;;;;;;10.38;5.78;;;;;;;21.46;nan;100640.03;5067761;28;20037;-74
2021/09/26 11:15:18;;;;;;;13.00;5.85;;;;;;;21.48;nan;100641.44;5046561;28;20055;-74
2021/09/26 11:17:48;;;;;;;8.50;5.70;;;;;;;21.43;nan;100643.97;5069436;28;20136;-74
2021/09/26 11:20:26;;;;;;;7.00;5.07;;;;;;;21.43;nan;100652.06;5069780;28;20066;-75
2021/09/26 11:23:03;;;;;;;9.60;5.65;;;;;;;21.29;nan;100648.59;5057206;28;20044;-74
2021/09/26 11:26:00;;;;;;;6.43;4.90;;;;;;;21.41;nan;100652.25;5068218;28;20426;-74
2021/09/26 11:28:36;;;;;;;7.72;5.30;;;;;;;21.49;nan;100648.47;5067060;28;20052;-74
2021/09/26 11:31:10;;;;;;;7.30;4.97;;;;;;;21.50;nan;100641.19;5053425;28;20098;-75
2021/09/26 11:33:58;;;;;;;6.93;4.75;;;;;;;21.80;nan;100652.91;5059557;28;20417;-74
2021/09/26 11:36:26;;;;;;;5.80;4.60;;;;;;;21.94;nan;100642.03;5068179;28;20410;-74
2021/09/26 11:38:51;;;;;;;7.78;5.22;;;;;;;22.01;nan;100642.78;5069573;28;20119;-74
2021/09/26 11:41:34;;;;;;;6.32;4.80;;;;;;;21.98;nan;100635.97;5069029;28;20074;-74
2021/09/26 11:44:05;;;;;;;7.25;5.20;;;;;;;21.96;nan;100648.81;5051169;28;20550;-75
2021/09/26 11:46:31;;;;;;;9.02;5.78;;;;;;;21.96;nan;100651.50;5049779;28;20037;-75
2021/09/26 11:48:59;;;;;;;9.85;5.78;;;;;;;21.93;nan;100646.59;5069382;28;20090;-75